Time;durP1;ratioP1;P1;durP2;ratioP2;P2;SDS_P1;SDS_P2;PMS_P1;PMS_P2;Temp;Humidity;BMP_temperature;BMP_pressure;BME280_temperature;BME280_humidity;BME280_pressure;Samples;Min_cycle;Max_cycle;Signal;HPM_P1;HPM_P2
2021/11/07 00:06:24;;;;;;;;;5.25;5.00;;;;;22.32;39.99;102260.84;4966317;28;45521;-64
2021/11/07 00:11:33;;;;;;;;;6.00;4.50;;;;;22.49;39.43;102274.28;4969759;28;45355;-64
2021/11/07 00:13:58;;;;;;;;;7.75;4.50;;;;;22.46;39.43;102278.06;4969118;28;45474;-64
2021/11/07 00:16:26;;;;;;;;;6.75;4.50;;;;;22.48;39.55;102272.63;4967072;28;45375;-64
2021/11/07 00:19:11;;;;;;;;;5.50;4.50;;;;;22.44;40.11;102269.41;4967356;28;45563;-64
2021/11/07 00:21:49;;;;;;;;;3.75;3.75;;;;;22.48;39.47;102265.47;4965881;28;45507;-64
2021/11/07 00:24:29;;;;;;;;;5.50;5.50;;;;;22.47;39.73;102261.16;4967085;28;47277;-64
2021/11/07 00:27:19;;;;;;;;;3.50;3.00;;;;;22.42;39.76;102255.47;4969512;28;45348;-64
2021/11/07 00:32:35;;;;;;;;;3.75;3.50;;;;;22.45;39.64;102263.16;4970144;28;45377;-64
2021/11/07 00:37:47;;;;;;;;;3.50;3.50;;;;;22.44;39.28;102255.31;4972467;28;45379;-64
2021/11/07 00:40:39;;;;;;;;;4.50;4.00;;;;;22.41;39.66;102245.84;4969084;28;45185;-64
2021/11/07 00:43:10;;;;;;;;;4.25;4.25;;;;;22.36;39.32;102243.63;4969554;28;45544;-64
2021/11/07 00:51:18;;;;;;;;;4.00;4.00;;;;;22.38;39.34;102239.00;4956071;28;46917;-63
2021/11/07 00:53:49;;;;;;;;;4.25;3.00;;;;;22.35;39.52;102235.84;4956008;28;45574;-64
2021/11/07 00:56:23;;;;;;;;;4.00;4.00;;;;;22.35;39.12;102225.25;4972080;28;47299;-64
2021/11/07 01:01:34;;;;;;;;;5.25;4.25;;;;;22.36;39.47;102230.38;4970646;28;45453;-64
2021/11/07 01:04:02;;;;;;;;;4.75;4.75;;;;;22.33;39.13;102222.72;4970428;28;45264;-64
2021/11/07 01:06:28;;;;;;;;;5.50;4.50;;;;;22.33;39.46;102225.38;4970422;28;46339;-64
2021/11/07 01:08:53;;;;;;;;;3.75;3.75;;;;;22.35;39.28;102225.25;4970806;28;45466;-64
2021/11/07 01:11:19;;;;;;;;;7.00;4.00;;;;;22.32;39.13;102218.41;4971670;28;45400;-64
2021/11/07 01:13:45;;;;;;;;;4.75;4.50;;;;;22.33;39.45;102216.59;4972125;28;45569;-64
2021/11/07 01:16:11;;;;;;;;;4.25;3.00;;;;;22.29;39.39;102210.75;4970503;28;46246;-64
2021/11/07 01:18:36;;;;;;;;;4.75;3.75;;;;;22.28;39.35;102199.31;4968845;28;45355;-64
2021/11/07 01:21:02;;;;;;;;;4.25;4.00;;;;;22.32;39.19;102206.97;4969090;28;45343;-63
2021/11/07 01:23:35;;;;;;;;;4.50;4.00;;;;;22.31;38.75;102200.81;4970696;28;45376;-64
2021/11/07 01:26:07;;;;;;;;;5.00;5.00;;;;;22.31;39.43;102203.47;4972559;28;45426;-64
2021/11/07 01:28:39;;;;;;;;;3.50;3.50;;;;;22.27;38.92;102192.34;4970100;28;45539;-64
2021/11/07 01:31:04;;;;;;;;;3.00;2.00;;;;;22.30;39.29;102207.13;4970434;28;45350;-64
2021/11/07 01:33:31;;;;;;;;;4.50;4.50;;;;;22.30;39.28;102201.81;4969921;28;45537;-64
2021/11/07 01:38:40;;;;;;;;;5.00;5.00;;;;;22.27;39.16;102196.81;4970169;28;45455;-64
2021/11/07 01:41:19;;;;;;;;;5.50;3.75;;;;;22.29;39.28;102200.16;4968057;28;45430;-63
2021/11/07 01:43:46;;;;;;;;;4.25;3.00;;;;;22.26;39.25;102193.31;4971594;28;45618;-64
2021/11/07 01:46:25;;;;;;;;;4.00;4.00;;;;;22.29;39.00;102208.09;4969821;28;46452;-64
2021/11/07 01:49:16;;;;;;;;;4.00;4.00;;;;;22.28;38.87;102203.78;4969747;28;45470;-64
2021/11/07 01:51:51;;;;;;;;;5.75;2.25;;;;;22.24;39.42;102190.00;4970220;28;45419;-64
2021/11/07 01:54:30;;;;;;;;;3.00;3.00;;;;;22.25;39.39;102191.66;4973285;28;45546;-64
2021/11/07 01:56:55;;;;;;;;;5.25;3.25;;;;;22.26;39.32;102195.13;4971750;28;46222;-64
2021/11/07 01:59:21;;;;;;;;;5.00;3.00;;;;;22.24;38.79;102189.16;4973904;28;45287;-64
2021/11/07 02:01:54;;;;;;;;;4.75;4.75;;;;;22.28;38.75;102195.81;4972646;28;45449;-64
2021/11/07 02:04:20;;;;;;;;;3.00;3.00;;;;;22.25;39.03;102175.75;4973238;28;45524;-64
2021/11/07 02:06:46;;;;;;;;;4.00;4.00;;;;;22.27;38.61;102180.91;4972811;28;45536;-64
2021/11/07 02:09:11;;;;;;;;;3.00;3.00;;;;;22.27;39.28;102186.22;4973124;28;45450;-64
2021/11/07 02:11:37;;;;;;;;;5.25;4.25;;;;;22.26;39.16;102169.47;4956907;28;45915;-64
2021/11/07 02:14:02;;;;;;;;;2.00;2.00;;;;;22.24;38.87;102163.47;4973792;28;45471;-64
2021/11/07 02:16:28;;;;;;;;;3.50;3.00;;;;;22.24;38.84;102160.84;4972568;28;45684;-64
2021/11/07 02:18:54;;;;;;;;;3.50;3.50;;;;;22.25;38.95;102165.13;4972870;28;45407;-64
2021/11/07 02:21:20;;;;;;;;;3.00;3.00;;;;;22.21;38.91;102153.16;4972792;28;45413;-64
2021/11/07 02:23:45;;;;;;;;;2.50;2.50;;;;;22.23;39.20;102156.50;4971140;28;45338;-64
2021/11/07 02:26:11;;;;;;;;;2.75;2.75;;;;;22.26;39.03;102158.03;4974296;28;45980;-64
2021/11/07 02:28:40;;;;;;;;;3.00;3.00;;;;;22.23;39.29;102153.00;4973292;28;45280;-63
2021/11/07 02:31:07;;;;;;;;;5.00;3.75;;;;;22.23;39.03;102145.06;4972557;28;45350;-64
2021/11/07 02:33:33;;;;;;;;;4.50;3.00;;;;;22.18;39.21;102137.56;4972729;28;45526;-64
2021/11/07 02:36:06;;;;;;;;;4.00;4.00;;;;;22.24;39.09;102141.44;4971332;28;46417;-64
2021/11/07 02:38:31;;;;;;;;;3.00;3.00;;;;;22.22;38.70;102138.09;4972357;28;45518;-64
2021/11/07 02:40:56;;;;;;;;;4.00;4.00;;;;;22.24;38.97;102130.84;4973647;28;45458;-64
2021/11/07 02:43:21;;;;;;;;;3.25;3.25;;;;;22.23;38.88;102131.81;4972687;28;45408;-64
2021/11/07 02:45:47;;;;;;;;;3.00;3.00;;;;;22.23;38.69;102127.34;4971353;28;46195;-63
2021/11/07 02:48:12;;;;;;;;;4.75;3.25;;;;;22.21;39.15;102115.22;4972710;28;45510;-64
2021/11/07 02:50:38;;;;;;;;;5.00;4.00;;;;;22.21;38.68;102126.66;4972978;28;45367;-64
2021/11/07 02:53:03;;;;;;;;;4.25;2.75;;;;;22.16;39.17;102119.16;4974633;28;45619;-64
2021/11/07 02:55:29;;;;;;;;;4.25;3.00;;;;;22.23;38.36;102122.03;4972348;28;46477;-64
2021/11/07 02:57:59;;;;;;;;;3.00;3.00;;;;;22.23;39.03;102132.63;4972283;28;45505;-63
2021/11/07 03:00:29;;;;;;;;;3.50;3.50;;;;;22.24;39.07;102133.47;4972093;28;45287;-64
2021/11/07 03:02:55;;;;;;;;;2.50;2.50;;;;;22.23;38.87;102132.63;4972230;28;45347;-64
2021/11/07 03:05:20;;;;;;;;;4.00;4.00;;;;;22.16;38.51;102126.28;4972787;28;45324;-64
2021/11/07 03:07:46;;;;;;;;;5.75;4.00;;;;;22.24;38.99;102130.84;4973783;28;45427;-64
2021/11/07 03:10:13;;;;;;;;;3.00;3.00;;;;;22.21;38.45;102126.66;4972408;28;45497;-64
2021/11/07 03:12:39;;;;;;;;;3.75;3.00;;;;;22.24;38.96;102128.19;4972368;28;45428;-64
2021/11/07 03:15:08;;;;;;;;;4.50;3.50;;;;;22.24;38.59;102121.06;4970679;28;45344;-63
2021/11/07 03:17:34;;;;;;;;;2.00;2.00;;;;;22.24;38.96;102114.94;4971578;28;45312;-64
2021/11/07 03:19:59;;;;;;;;;3.00;3.00;;;;;22.24;38.55;102106.97;4973352;28;45363;-64
2021/11/07 03:22:28;;;;;;;;;3.75;3.75;;;;;22.23;38.98;102107.94;4972134;28;45481;-64
2021/11/07 03:24:55;;;;;;;;;3.25;2.25;;;;;22.21;39.04;102097.50;4972058;28;45994;-64
2021/11/07 03:27:32;;;;;;;;;3.00;3.00;;;;;22.23;38.89;102095.53;4971803;28;45295;-64
2021/11/07 03:30:00;;;;;;;;;4.00;3.00;;;;;22.23;39.05;102089.38;4971790;28;45432;-64
2021/11/07 03:32:32;;;;;;;;;3.00;3.00;;;;;22.15;39.00;102075.06;4972184;28;45435;-64
2021/11/07 03:35:02;;;;;;;;;3.00;3.00;;;;;22.24;39.08;102085.75;4973956;28;46881;-64
2021/11/07 03:37:35;;;;;;;;;3.00;3.00;;;;;22.23;38.52;102081.44;4972009;28;45225;-64
2021/11/07 03:40:03;;;;;;;;;6.00;4.00;;;;;22.23;39.05;102076.97;4970453;28;45495;-63
2021/11/07 03:42:30;;;;;;;;;2.00;2.00;;;;;22.21;38.74;102073.66;4971642;28;45497;-64
2021/11/07 03:44:56;;;;;;;;;4.25;3.75;;;;;22.22;38.79;102071.84;4971578;28;45375;-64
2021/11/07 03:47:21;;;;;;;;;3.75;3.75;;;;;22.15;38.44;102061.81;4972353;28;45471;-64
2021/11/07 03:49:48;;;;;;;;;3.00;3.00;;;;;22.17;38.63;102059.84;4973654;28;45384;-64
2021/11/07 03:52:13;;;;;;;;;3.00;3.00;;;;;22.22;38.43;102069.19;4971827;28;45599;-64
2021/11/07 03:54:40;;;;;;;;;3.25;3.25;;;;;22.15;38.59;102051.22;4970289;28;45871;-64
2021/11/07 03:57:08;;;;;;;;;4.25;2.75;;;;;22.22;38.71;102069.19;4969893;28;45532;-62
2021/11/07 03:59:33;;;;;;;;;3.75;3.50;;;;;22.22;38.65;102063.88;4972005;28;45456;-64
2021/11/07 04:01:59;;;;;;;;;2.00;2.00;;;;;22.15;38.72;102048.56;4973756;28;45289;-64
2021/11/07 04:04:25;;;;;;;;;2.50;2.50;;;;;22.21;38.74;102054.25;4971384;28;45441;-64
2021/11/07 04:06:51;;;;;;;;;3.00;3.00;;;;;22.20;38.68;102050.75;4971496;28;45439;-64
2021/11/07 04:09:18;;;;;;;;;4.25;3.25;;;;;22.19;38.42;102035.84;4971721;28;45482;-64
2021/11/07 04:11:43;;;;;;;;;4.50;3.00;;;;;22.20;38.59;102037.50;4971271;28;45366;-64
2021/11/07 04:14:11;;;;;;;;;2.00;2.00;;;;;22.18;38.61;102027.06;4972917;28;46094;-64
2021/11/07 04:16:37;;;;;;;;;3.50;3.50;;;;;22.13;38.34;102017.91;4972048;28;45345;-64
2021/11/07 04:19:04;;;;;;;;;2.25;2.25;;;;;22.21;39.20;102033.88;4971323;28;45408;-64
2021/11/07 04:21:30;;;;;;;;;4.50;4.00;;;;;22.22;38.80;102032.06;4971376;28;47319;-64
2021/11/07 04:23:56;;;;;;;;;2.00;2.00;;;;;22.19;39.04;102019.94;4971308;28;46971;-63
2021/11/07 04:26:22;;;;;;;;;3.00;3.00;;;;;22.20;38.42;102028.75;4971681;28;45433;-64
2021/11/07 04:28:48;;;;;;;;;3.25;2.25;;;;;22.11;38.55;102007.47;4973284;28;45356;-64
2021/11/07 04:31:14;;;;;;;;;2.00;2.00;;;;;22.22;38.67;102018.81;4971335;28;45362;-64
2021/11/07 04:33:40;;;;;;;;;3.00;3.00;;;;;22.20;38.61;102012.84;4969800;28;46070;-64
2021/11/07 04:36:05;;;;;;;;;3.00;2.50;;;;;22.22;38.50;102008.22;4969724;28;45350;-64
2021/11/07 04:38:31;;;;;;;;;2.75;2.75;;;;;22.17;39.04;102006.03;4971405;28;46013;-64
2021/11/07 04:40:57;;;;;;;;;2.50;2.50;;;;;22.21;39.01;102007.38;4973013;28;45379;-64
2021/11/07 04:43:23;;;;;;;;;2.00;2.00;;;;;22.21;38.98;102017.13;4970889;28;45451;-64
2021/11/07 04:45:48;;;;;;;;;2.75;2.50;;;;;22.18;38.58;102002.38;4971000;28;45267;-64
2021/11/07 04:48:14;;;;;;;;;2.00;2.00;;;;;22.20;39.07;102002.22;4971178;28;45287;-63
2021/11/07 04:50:40;;;;;;;;;4.00;2.00;;;;;22.20;38.52;102008.34;4971393;28;45542;-63
2021/11/07 04:53:08;;;;;;;;;2.25;2.25;;;;;22.20;38.97;102003.03;4968867;28;45378;-64
2021/11/07 04:55:36;;;;;;;;;3.50;3.00;;;;;22.22;38.59;102013.50;4970581;28;45437;-63
2021/11/07 04:58:03;;;;;;;;;2.25;2.25;;;;;22.17;38.99;102006.03;4970932;28;45492;-64
2021/11/07 05:00:29;;;;;;;;;2.00;2.00;;;;;22.20;38.65;102005.69;4970662;28;45439;-64
2021/11/07 05:02:54;;;;;;;;;2.50;2.50;;;;;22.16;38.99;101991.09;4970792;28;45860;-63
2021/11/07 05:05:21;;;;;;;;;3.00;2.00;;;;;22.20;38.96;101999.59;4971687;28;45322;-64
2021/11/07 05:07:47;;;;;;;;;1.25;1.25;;;;;22.19;38.57;101990.78;4972424;28;45384;-64
2021/11/07 05:10:13;;;;;;;;;2.00;2.00;;;;;22.21;38.71;101993.28;4970373;28;45373;-64
2021/11/07 05:12:38;;;;;;;;;1.25;1.25;;;;;22.20;38.75;102005.69;4969231;28;45312;-63
2021/11/07 05:15:06;;;;;;;;;3.00;3.00;;;;;22.16;38.55;101993.75;4969279;28;45323;-64
2021/11/07 05:17:31;;;;;;;;;3.00;2.00;;;;;22.15;38.87;101987.59;4970951;28;45380;-64
2021/11/07 05:19:56;;;;;;;;;2.00;2.00;;;;;22.14;38.99;101993.91;4972514;28;45166;-64
2021/11/07 05:22:22;;;;;;;;;2.25;2.00;;;;;22.17;39.08;101990.94;4970529;28;46178;-64
2021/11/07 05:24:47;;;;;;;;;2.00;2.00;;;;;22.14;38.55;101988.59;4970224;28;45398;-64
2021/11/07 05:27:15;;;;;;;;;1.00;1.00;;;;;22.15;38.99;101992.06;4971126;28;45331;-64
2021/11/07 05:29:40;;;;;;;;;1.00;1.00;;;;;22.20;38.87;101999.59;4973646;28;45506;-64
2021/11/07 05:32:06;;;;;;;;;2.75;2.75;;;;;22.20;38.52;101997.75;4975556;28;46257;-64
2021/11/07 05:34:32;;;;;;;;;2.25;2.00;;;;;22.17;38.54;101998.88;4973392;28;45485;-64
2021/11/07 05:36:58;;;;;;;;;3.00;2.00;;;;;22.14;38.65;101993.91;4973590;28;45586;-64
2021/11/07 05:39:24;;;;;;;;;3.50;1.00;;;;;22.15;38.59;101990.25;4973007;28;45402;-64
2021/11/07 05:41:50;;;;;;;;;3.00;3.00;;;;;22.18;38.86;101999.72;4973222;28;46097;-64
2021/11/07 05:44:15;;;;;;;;;2.50;2.50;;;;;22.18;39.14;101997.91;4974743;28;45350;-63
2021/11/07 05:46:43;;;;;;;;;2.50;1.00;;;;;22.18;39.07;102008.50;4974071;28;45557;-64
2021/11/07 05:49:08;;;;;;;;;1.00;1.00;;;;;22.18;39.23;102005.03;4973393;28;45517;-64
2021/11/07 05:51:36;;;;;;;;;2.00;2.00;;;;;22.15;38.77;101997.38;4971665;28;45521;-63
2021/11/07 05:54:01;;;;;;;;;1.00;1.00;;;;;22.15;38.61;101998.22;4971453;28;45295;-64
2021/11/07 05:56:27;;;;;;;;;1.50;1.50;;;;;22.19;38.84;101998.75;4973375;28;45549;-64
2021/11/07 05:58:52;;;;;;;;;2.00;2.00;;;;;22.21;39.11;102007.38;4974140;28;45631;-64
2021/11/07 06:01:18;;;;;;;;;3.75;2.50;;;;;22.21;39.07;102017.13;4972295;28;45708;-65
2021/11/07 06:03:43;;;;;;;;;5.00;2.75;;;;;22.20;39.04;102007.53;4972917;28;45563;-63
2021/11/07 06:06:08;;;;;;;;;2.00;2.00;;;;;22.21;38.70;102007.38;4973269;28;45529;-64
2021/11/07 06:08:34;;;;;;;;;2.25;1.25;;;;;22.03;38.67;101987.03;4972934;28;45350;-63
2021/11/07 06:11:00;;;;;;;;;1.25;1.25;;;;;22.20;39.02;102013.66;4975057;28;46168;-64
2021/11/07 06:13:26;;;;;;;;;1.50;1.00;;;;;22.17;38.60;102004.19;4973142;28;45402;-64
2021/11/07 06:15:51;;;;;;;;;1.75;1.75;;;;;22.21;38.98;102010.03;4983433;28;45490;-63
2021/11/07 06:18:16;;;;;;;;;2.00;2.00;;;;;22.21;38.64;102002.06;4973127;28;45488;-64
2021/11/07 06:20:42;;;;;;;;;2.00;2.00;;;;;22.13;38.76;101991.41;4972907;28;46706;-64
2021/11/07 06:23:09;;;;;;;;;2.00;1.00;;;;;22.17;39.11;101998.06;4974785;28;45320;-64
2021/11/07 06:25:36;;;;;;;;;1.00;1.00;;;;;22.22;39.09;101997.59;4973306;28;45366;-64
2021/11/07 06:28:01;;;;;;;;;2.00;2.00;;;;;22.22;38.64;101992.31;4972812;28;45332;-64
2021/11/07 06:30:28;;;;;;;;;1.00;1.00;;;;;22.20;38.68;101992.44;4971066;28;46103;-64
2021/11/07 06:32:53;;;;;;;;;2.00;1.50;;;;;22.21;39.18;101990.63;4971320;28;45444;-64
2021/11/07 06:35:19;;;;;;;;;1.75;1.75;;;;;22.22;38.72;101990.50;4973767;28;45514;-64
2021/11/07 06:37:44;;;;;;;;;1.00;1.00;;;;;22.21;39.17;101994.13;4973102;28;45256;-64
2021/11/07 06:40:11;;;;;;;;;2.00;2.00;;;;;22.23;39.18;101999.25;4972634;28;47290;-64
2021/11/07 06:42:37;;;;;;;;;1.00;1.00;;;;;22.22;38.85;102001.09;4972508;28;45450;-64
2021/11/07 06:45:03;;;;;;;;;2.00;2.00;;;;;22.21;38.66;102012.69;4972954;28;45303;-64
2021/11/07 06:47:29;;;;;;;;;1.00;1.00;;;;;22.17;38.55;102009.47;4972609;28;45485;-64
2021/11/07 06:49:55;;;;;;;;;1.50;1.00;;;;;22.20;38.89;102026.09;4973211;28;47349;-64
2021/11/07 06:52:20;;;;;;;;;1.00;1.00;;;;;22.18;38.65;102021.75;4972265;28;47420;-64
2021/11/07 06:54:47;;;;;;;;;3.25;1.50;;;;;22.22;39.19;102034.72;4972456;28;45418;-64
2021/11/07 06:57:13;;;;;;;;;1.25;1.25;;;;;22.18;39.19;102029.72;4972662;28;45844;-64
2021/11/07 06:59:39;;;;;;;;;1.50;1.50;;;;;22.21;38.94;102039.19;4957161;28;45432;-64
2021/11/07 07:02:06;;;;;;;;;0.00;0.00;;;;;22.21;39.14;102038.34;4974458;28;45458;-64
2021/11/07 07:04:31;;;;;;;;;1.00;1.00;;;;;22.21;38.65;102041.84;4972411;28;45247;-64
2021/11/07 07:06:56;;;;;;;;;1.00;1.00;;;;;22.16;38.65;102034.34;4972047;28;45374;-63
2021/11/07 07:09:25;;;;;;;;;1.00;0.00;;;;;22.18;38.81;102029.72;4970782;28;46402;-64
2021/11/07 07:12:01;;;;;;;;;1.25;1.25;;;;;22.18;39.19;102032.38;4970943;28;45393;-64
2021/11/07 07:14:36;;;;;;;;;1.25;1.25;;;;;22.20;38.63;102021.59;4972347;28;45549;-64
2021/11/07 07:35:11;;;;;;;;;1.25;1.00;;;;;22.20;38.91;102047.28;4970211;28;45299;-64
2021/11/07 07:37:37;;;;;;;;;1.00;1.00;;;;;22.20;39.13;102044.66;4971493;28;45435;-64
2021/11/07 07:40:05;;;;;;;;;1.00;1.00;;;;;22.18;39.17;102044.78;4971811;28;45213;-64
2021/11/07 07:42:32;;;;;;;;;1.00;1.00;;;;;22.20;38.68;102056.06;4971920;28;45479;-64
2021/11/07 07:44:57;;;;;;;;;2.00;2.00;;;;;22.19;38.84;102054.41;4972159;28;45369;-64
2021/11/07 07:47:23;;;;;;;;;1.00;1.00;;;;;22.17;38.82;102051.91;4971248;28;45527;-64
2021/11/07 07:49:50;;;;;;;;;1.25;1.25;;;;;22.16;39.13;102058.19;4972010;28;45488;-64
2021/11/07 07:52:20;;;;;;;;;2.00;1.00;;;;;22.16;39.17;102065.31;4970310;28;45517;-64
2021/11/07 07:54:45;;;;;;;;;1.25;1.25;;;;;22.18;38.93;102056.22;4971885;28;45504;-64
2021/11/07 07:57:11;;;;;;;;;1.00;1.00;;;;;22.17;38.81;102043.94;4971710;28;45587;-64
2021/11/07 07:59:36;;;;;;;;;1.25;1.00;;;;;22.19;38.76;102049.13;4971855;28;47130;-64
2021/11/07 08:02:02;;;;;;;;;1.00;1.00;;;;;22.22;39.33;102048.81;4973682;28;45413;-64
2021/11/07 08:04:27;;;;;;;;;1.00;1.00;;;;;22.24;38.89;102038.03;4971489;28;45361;-63
2021/11/07 08:06:52;;;;;;;;;1.00;1.00;;;;;22.21;38.80;102039.19;4971695;28;45445;-64
2021/11/07 08:09:18;;;;;;;;;1.00;1.00;;;;;22.05;38.75;102016.00;4971565;28;46198;-64
2021/11/07 08:11:43;;;;;;;;;1.00;1.00;;;;;22.21;38.80;102039.19;4971846;28;45604;-64
2021/11/07 08:14:09;;;;;;;;;0.00;0.00;;;;;22.22;39.00;102040.84;4974107;28;45362;-64
2021/11/07 08:16:35;;;;;;;;;1.00;1.00;;;;;22.20;39.04;102037.50;4971423;28;45664;-64
2021/11/07 08:19:01;;;;;;;;;1.00;1.00;;;;;22.20;39.35;102036.69;4971112;28;46322;-63
2021/11/07 08:21:30;;;;;;;;;0.75;0.75;;;;;22.22;39.21;102043.50;4971254;28;45315;-64
2021/11/07 08:23:55;;;;;;;;;2.00;2.00;;;;;22.21;39.30;102044.47;4971616;28;45447;-64
2021/11/07 08:26:21;;;;;;;;;1.75;1.75;;;;;22.21;38.75;102052.44;4972473;28;45334;-64
2021/11/07 08:28:47;;;;;;;;;3.00;1.25;;;;;22.21;38.82;102052.44;4971168;28;46119;-64
2021/11/07 08:31:21;;;;;;;;;2.00;2.00;;;;;22.16;39.38;102036.16;4969598;28;45546;-64
2021/11/07 08:33:47;;;;;;;;;2.00;1.00;;;;;22.22;38.81;102051.47;4971101;28;45433;-64
2021/11/07 08:36:19;;;;;;;;;1.25;0.25;;;;;22.20;38.91;102045.47;4971392;28;45541;-64
2021/11/07 08:38:49;;;;;;;;;1.00;1.00;;;;;22.22;39.26;102047.97;4956700;28;45392;-64
2021/11/07 08:41:16;;;;;;;;;1.00;1.00;;;;;22.23;39.34;102046.97;4972385;28;45386;-63
2021/11/07 09:00:18;;;;;;;;;2.00;1.00;;;;;22.21;39.24;102048.94;4966751;28;45489;-64
2021/11/07 09:02:55;;;;;;;;;2.75;1.50;;;;;22.16;38.84;102034.34;4958180;28;45692;-64
2021/11/07 09:06:14;;;;;;;;;0.25;0.25;;;;;22.22;39.16;102046.16;4972517;28;45439;-64
2021/11/07 09:08:15;;;;;;;;;1.75;1.00;;;;;22.18;38.82;102039.47;4982554;28;45280;-64
2021/11/07 09:10:43;;;;;;;;;1.00;1.00;;;;;22.21;38.74;102033.88;4970912;28;45415;-64
2021/11/07 09:13:10;;;;;;;;;2.50;1.00;;;;;22.22;38.94;102048.81;4969520;28;45297;-64
2021/11/07 09:15:39;;;;;;;;;1.50;1.50;;;;;22.22;39.26;102050.63;4969435;28;45416;-65
2021/11/07 09:18:05;;;;;;;;;1.50;1.50;;;;;22.21;38.79;102049.78;4970501;28;45508;-63
2021/11/07 09:20:48;;;;;;;;;1.50;1.50;;;;;22.22;38.87;102059.41;4972484;28;46559;-63
2021/11/07 09:23:19;;;;;;;;;1.25;1.25;;;;;22.23;38.86;102065.53;4971782;28;45469;-63
2021/11/07 09:26:11;;;;;;;;;1.50;1.00;;;;;22.17;38.80;102049.25;4962565;28;45325;-63
2021/11/07 09:28:44;;;;;;;;;3.00;1.00;;;;;22.24;38.72;102053.94;4969497;28;45633;-63
2021/11/07 09:32:04;;;;;;;;;1.00;1.00;;;;;22.22;39.19;102059.41;4973022;28;46039;-63
2021/11/07 09:36:36;;;;;;;;;2.50;0.75;;;;;22.21;38.72;102048.94;4973241;28;45479;-64
2021/11/07 09:44:18;;;;;;;;;4.00;1.75;;;;;22.25;39.03;102071.53;4971926;28;46386;-64
2021/11/07 09:46:54;;;;;;;;;0.75;0.75;;;;;22.27;38.71;102077.50;4975255;28;45502;-64
2021/11/07 09:49:25;;;;;;;;;1.00;1.00;;;;;22.27;39.14;102078.34;4971920;28;45555;-63
2021/11/07 09:51:59;;;;;;;;;1.25;1.00;;;;;22.28;38.64;102081.81;4973027;28;45687;-63
2021/11/07 09:54:27;;;;;;;;;1.00;1.00;;;;;22.28;38.91;102090.59;4973060;28;45345;-63
2021/11/07 09:56:54;;;;;;;;;1.00;1.00;;;;;22.27;38.93;102081.00;4973293;28;45450;-64
2021/11/07 09:59:21;;;;;;;;;2.00;1.50;;;;;22.29;39.22;102084.34;4974169;28;45339;-64
2021/11/07 10:01:50;;;;;;;;;1.00;1.00;;;;;22.28;38.82;102095.91;4973872;28;47012;-64
2021/11/07 10:04:17;;;;;;;;;2.00;2.00;;;;;22.27;39.17;102088.13;4972892;28;45703;-64
2021/11/07 10:06:50;;;;;;;;;1.00;1.00;;;;;22.28;39.13;102095.91;4973111;28;45938;-64
2021/11/07 10:09:36;;;;;;;;;1.00;1.00;;;;;22.27;39.13;102094.25;4973002;28;45378;-64
2021/11/07 10:12:07;;;;;;;;;1.50;1.50;;;;;22.23;39.14;102097.34;4972280;28;45277;-64
2021/11/07 10:14:56;;;;;;;;;1.50;1.50;;;;;22.24;38.62;102102.50;4972498;28;45433;-64
2021/11/07 10:17:40;;;;;;;;;1.00;1.00;;;;;22.28;38.59;102109.16;4971542;28;45371;-64
2021/11/07 10:20:30;;;;;;;;;2.00;2.00;;;;;22.26;38.98;102113.78;4974711;28;45373;-64
2021/11/07 10:23:25;;;;;;;;;1.75;1.00;;;;;22.23;39.11;102119.38;4975003;28;46145;-64
2021/11/07 10:26:01;;;;;;;;;3.00;1.00;;;;;22.27;38.84;102125.22;4972936;28;45449;-65
2021/11/07 10:28:35;;;;;;;;;1.00;1.00;;;;;22.25;39.20;102116.59;4971325;28;45553;-64
2021/11/07 10:31:16;;;;;;;;;4.00;2.00;;;;;22.24;38.86;102126.38;4973055;28;45384;-65
2021/11/07 10:53:14;;;;;;;;;3.25;1.50;;;;;22.23;38.05;102119.38;4920818;28;45401;-63
2021/11/07 10:55:46;;;;;;;;;4.00;1.00;;;;;22.26;38.16;102099.69;4921015;28;46280;-64
2021/11/07 10:58:13;;;;;;;;;2.25;1.25;;;;;22.24;38.54;102085.75;4919862;28;45496;-65
2021/11/07 11:00:47;;;;;;;;;2.25;2.25;;;;;22.31;38.70;102094.78;4910875;28;45461;-64
2021/11/07 11:03:18;;;;;;;;;2.75;1.50;;;;;22.31;38.32;102089.47;4923974;28;45510;-64
2021/11/07 11:05:51;;;;;;;;;2.75;1.50;;;;;22.36;38.75;102092.50;4919385;28;47549;-64
2021/11/07 11:08:24;;;;;;;;;1.25;1.25;;;;;22.34;38.29;102091.81;4911046;28;45466;-64
2021/11/07 11:16:55;;;;;;;;;2.25;1.00;;;;;22.49;38.14;102117.78;4875085;28;45513;-64
2021/11/07 11:34:39;;;;;;;;;3.00;1.75;;;;;22.60;38.83;102098.16;4913389;28;45603;-64
2021/11/07 11:37:14;;;;;;;;;1.50;1.00;;;;;22.56;38.06;102094.16;4912994;28;45558;-64
2021/11/07 11:39:45;;;;;;;;;2.50;2.50;;;;;22.59;38.54;102099.13;4920839;28;45455;-64
2021/11/07 11:42:16;;;;;;;;;1.00;1.00;;;;;22.57;38.23;102093.16;4903732;28;45376;-64
2021/11/07 11:44:48;;;;;;;;;2.00;2.00;;;;;22.62;38.34;102104.97;4912724;28;45464;-65
2021/11/07 11:48:06;;;;;;;;;2.00;2.00;;;;;22.61;38.20;102103.31;4911388;28;47419;-64
2021/11/07 11:55:44;;;;;;;;;2.00;2.00;;;;;22.59;38.79;102105.28;4910358;28;45497;-64
2021/11/07 11:58:24;;;;;;;;;1.00;1.00;;;;;22.59;38.76;102109.75;4909700;28;47375;-64
2021/11/07 12:06:23;;;;;;;;;1.00;1.00;;;;;22.61;39.02;102113.91;4906515;28;45547;-64
2021/11/07 12:12:02;;;;;;;;;1.50;1.50;;;;;22.56;38.38;102097.63;4906500;28;46107;-65
2021/11/07 12:14:46;;;;;;;;;2.00;2.00;;;;;22.59;39.06;102105.28;4908934;28;45414;-65
2021/11/07 12:17:12;;;;;;;;;1.00;1.00;;;;;22.57;39.03;102094.00;4909474;28;45381;-63
2021/11/07 12:19:43;;;;;;;;;1.00;1.00;;;;;22.57;38.82;102091.34;4908982;28;46496;-64
2021/11/07 12:22:10;;;;;;;;;1.00;1.00;;;;;22.63;38.42;102098.69;4906029;28;45589;-64
2021/11/07 12:24:48;;;;;;;;;1.25;1.25;;;;;22.65;38.33;102093.22;4918875;28;45475;-62
2021/11/07 12:27:24;;;;;;;;;0.50;0.50;;;;;22.66;38.88;102099.38;4935716;28;45450;-65
2021/11/07 12:29:53;;;;;;;;;2.00;1.00;;;;;22.68;38.52;102102.69;4966961;28;47849;-64
2021/11/07 12:32:29;;;;;;;;;1.50;1.25;;;;;22.69;38.78;102104.38;4961423;28;45381;-64
2021/11/07 12:41:04;;;;;;;;;1.25;1.25;;;;;22.72;38.88;102112.03;4958552;28;46059;-64
2021/11/07 12:43:30;;;;;;;;;0.75;0.75;;;;;22.72;38.51;102112.88;4970032;28;45327;-65
2021/11/07 12:46:04;;;;;;;;;1.00;1.00;;;;;22.73;38.75;102119.03;4964746;28;45349;-64
2021/11/07 12:48:44;;;;;;;;;3.75;1.75;;;;;22.73;38.43;102103.09;4967593;28;45507;-64
2021/11/07 12:51:14;;;;;;;;;2.25;1.00;;;;;22.70;38.55;102104.25;4966331;28;45513;-64
2021/11/07 12:54:02;;;;;;;;;1.00;1.00;;;;;22.73;38.51;102089.84;4965429;28;45383;-66
2021/11/07 12:56:40;;;;;;;;;3.75;1.00;;;;;22.73;38.61;102095.97;4968699;28;45523;-64
2021/11/07 12:59:08;;;;;;;;;2.00;1.75;;;;;22.72;38.38;102102.25;4968581;28;45475;-64
2021/11/07 13:02:02;;;;;;;;;2.00;2.00;;;;;22.73;39.11;102092.50;4963748;28;46538;-64
2021/11/07 13:04:31;;;;;;;;;0.00;0.00;;;;;22.69;39.28;102083.97;4971963;28;45554;-64
2021/11/07 13:06:59;;;;;;;;;1.00;1.00;;;;;22.70;38.90;102079.53;4965627;28;45326;-64
2021/11/07 13:10:01;;;;;;;;;2.50;0.50;;;;;22.72;39.13;102081.03;4968841;28;45779;-64
2021/11/07 13:12:22;;;;;;;;;1.50;1.00;;;;;22.72;38.78;102077.56;4964658;28;46029;-67
2021/11/07 13:17:50;;;;;;;;;3.25;1.25;;;;;22.70;39.27;102090.97;4969458;28;45327;-64
2021/11/07 13:26:22;;;;;;;;;2.75;1.00;;;;;22.72;38.59;102109.38;4966605;28;45451;-63
2021/11/07 13:28:47;;;;;;;;;0.00;0.00;;;;;22.70;38.70;102100.75;4961958;28;45333;-63
2021/11/07 13:31:21;;;;;;;;;2.00;2.00;;;;;22.73;39.02;102095.97;4965312;28;45848;-64
2021/11/07 13:33:46;;;;;;;;;0.50;0.50;;;;;22.73;38.71;102095.16;4967705;28;46393;-64
2021/11/07 13:36:18;;;;;;;;;1.00;1.00;;;;;22.73;38.61;102098.63;4973462;28;45523;-64
2021/11/07 13:39:03;;;;;;;;;2.00;1.00;;;;;22.73;38.61;102088.03;4965676;28;45308;-63
2021/11/07 13:41:29;;;;;;;;;3.50;1.50;;;;;22.70;38.78;102080.38;4969066;28;45334;-64
2021/11/07 13:44:15;;;;;;;;;2.00;2.00;;;;;22.72;38.59;102080.19;4965656;28;45490;-62
2021/11/07 13:46:55;;;;;;;;;1.00;1.00;;;;;22.76;38.52;102081.56;4965656;28;45395;-62
2021/11/07 13:49:21;;;;;;;;;1.00;1.00;;;;;22.74;38.87;102080.91;4966539;28;45549;-63
2021/11/07 13:51:56;;;;;;;;;0.00;0.00;;;;;22.75;38.72;102082.56;4968627;28;45488;-63